sensor_id;sensor_type;location;lat;lon;timestamp;temperature;humidity
921;DHT22;447;51.332;6.778;2022-10-04T00:01:44;15.50;98.00
921;DHT22;447;51.332;6.778;2022-10-04T00:04:25;15.50;98.00
921;DHT22;447;51.332;6.778;2022-10-04T00:09:49;15.50;98.00
921;DHT22;447;51.332;6.778;2022-10-04T00:12:26;15.50;98.10
921;DHT22;447;51.332;6.778;2022-10-04T00:14:57;15.40;98.10
921;DHT22;447;51.332;6.778;2022-10-04T00:17:29;15.50;98.10
921;DHT22;447;51.332;6.778;2022-10-04T00:20:02;15.40;98.10
921;DHT22;447;51.332;6.778;2022-10-04T00:22:30;15.40;98.10
921;DHT22;447;51.332;6.778;2022-10-04T00:27:37;15.40;98.10
921;DHT22;447;51.332;6.778;2022-10-04T00:40:37;15.40;98.10
921;DHT22;447;51.332;6.778;2022-10-04T00:43:17;15.40;98.20
921;DHT22;447;51.332;6.778;2022-10-04T00:45:53;15.40;98.20
921;DHT22;447;51.332;6.778;2022-10-04T00:51:17;15.40;98.20
921;DHT22;447;51.332;6.778;2022-10-04T00:56:42;15.40;98.20
921;DHT22;447;51.332;6.778;2022-10-04T01:02:06;15.30;98.20
921;DHT22;447;51.332;6.778;2022-10-04T01:04:42;15.30;98.20
921;DHT22;447;51.332;6.778;2022-10-04T01:07:14;15.30;98.20
921;DHT22;447;51.332;6.778;2022-10-04T01:10:09;15.30;98.20
921;DHT22;447;51.332;6.778;2022-10-04T01:12:51;15.30;98.20
921;DHT22;447;51.332;6.778;2022-10-04T01:18:31;15.30;98.20
921;DHT22;447;51.332;6.778;2022-10-04T01:31:44;15.30;98.20
921;DHT22;447;51.332;6.778;2022-10-04T01:34:16;15.30;98.20
921;DHT22;447;51.332;6.778;2022-10-04T01:36:46;15.20;98.10
921;DHT22;447;51.332;6.778;2022-10-04T01:39:17;15.30;98.10
921;DHT22;447;51.332;6.778;2022-10-04T01:42:08;15.20;98.10
921;DHT22;447;51.332;6.778;2022-10-04T01:47:17;15.20;98.10
921;DHT22;447;51.332;6.778;2022-10-04T01:49:45;15.20;98.10
921;DHT22;447;51.332;6.778;2022-10-04T01:52:16;15.20;98.10
921;DHT22;447;51.332;6.778;2022-10-04T01:54:49;15.20;98.10
921;DHT22;447;51.332;6.778;2022-10-04T01:57:26;15.20;98.10
921;DHT22;447;51.332;6.778;2022-10-04T02:00:08;15.20;98.10
921;DHT22;447;51.332;6.778;2022-10-04T02:02:35;15.20;98.10
921;DHT22;447;51.332;6.778;2022-10-04T02:05:12;15.20;98.10
921;DHT22;447;51.332;6.778;2022-10-04T02:07:40;15.20;98.10
921;DHT22;447;51.332;6.778;2022-10-04T02:10:16;15.20;98.10
921;DHT22;447;51.332;6.778;2022-10-04T02:13:10;15.20;98.10
921;DHT22;447;51.332;6.778;2022-10-04T02:15:43;15.20;98.10
921;DHT22;447;51.332;6.778;2022-10-04T02:18:22;15.20;98.10
921;DHT22;447;51.332;6.778;2022-10-04T02:20:49;15.20;98.50
921;DHT22;447;51.332;6.778;2022-10-04T02:23:19;15.20;98.10
921;DHT22;447;51.332;6.778;2022-10-04T02:25:48;15.10;98.10
921;DHT22;447;51.332;6.778;2022-10-04T02:28:18;15.10;98.10
921;DHT22;447;51.332;6.778;2022-10-04T02:30:53;15.10;98.10
921;DHT22;447;51.332;6.778;2022-10-04T02:33:42;15.10;98.10
921;DHT22;447;51.332;6.778;2022-10-04T02:36:13;15.10;98.10
921;DHT22;447;51.332;6.778;2022-10-04T02:38:52;15.10;98.10
921;DHT22;447;51.332;6.778;2022-10-04T02:41:25;15.10;98.20
921;DHT22;447;51.332;6.778;2022-10-04T02:43:57;15.10;98.20
921;DHT22;447;51.332;6.778;2022-10-04T02:48:58;15.10;98.20
921;DHT22;447;51.332;6.778;2022-10-04T02:54:15;15.10;98.20
921;DHT22;447;51.332;6.778;2022-10-04T02:56:50;15.10;98.20
921;DHT22;447;51.332;6.778;2022-10-04T02:59:20;15.10;98.20
921;DHT22;447;51.332;6.778;2022-10-04T03:04:31;15.10;98.30
921;DHT22;447;51.332;6.778;2022-10-04T03:07:00;15.00;98.20
921;DHT22;447;51.332;6.778;2022-10-04T03:09:29;15.00;98.20
921;DHT22;447;51.332;6.778;2022-10-04T03:11:58;15.00;98.20
921;DHT22;447;51.332;6.778;2022-10-04T03:14:26;15.00;98.20
921;DHT22;447;51.332;6.778;2022-10-04T03:16:55;15.00;98.20
921;DHT22;447;51.332;6.778;2022-10-04T03:19:23;15.00;98.20
921;DHT22;447;51.332;6.778;2022-10-04T03:21:56;15.00;98.20
921;DHT22;447;51.332;6.778;2022-10-04T03:24:30;15.00;98.20
921;DHT22;447;51.332;6.778;2022-10-04T03:27:03;15.00;98.20
921;DHT22;447;51.332;6.778;2022-10-04T03:29:35;15.00;98.20
921;DHT22;447;51.332;6.778;2022-10-04T03:32:04;15.00;98.20
921;DHT22;447;51.332;6.778;2022-10-04T03:34:35;15.00;98.20
921;DHT22;447;51.332;6.778;2022-10-04T03:37:13;15.00;98.30
921;DHT22;447;51.332;6.778;2022-10-04T03:39:42;15.00;98.30
921;DHT22;447;51.332;6.778;2022-10-04T03:42:16;15.00;98.30
921;DHT22;447;51.332;6.778;2022-10-04T03:44:47;15.00;98.30
921;DHT22;447;51.332;6.778;2022-10-04T03:47:19;15.00;98.30
921;DHT22;447;51.332;6.778;2022-10-04T03:49:47;14.90;98.30
921;DHT22;447;51.332;6.778;2022-10-04T03:52:21;15.00;98.30
921;DHT22;447;51.332;6.778;2022-10-04T03:54:56;14.90;98.30
921;DHT22;447;51.332;6.778;2022-10-04T03:57:26;14.90;98.30
921;DHT22;447;51.332;6.778;2022-10-04T03:59:55;14.90;98.30
921;DHT22;447;51.332;6.778;2022-10-04T04:05:08;14.90;98.30
921;DHT22;447;51.332;6.778;2022-10-04T04:10:12;14.90;98.30
921;DHT22;447;51.332;6.778;2022-10-04T04:15:41;14.90;98.30
921;DHT22;447;51.332;6.778;2022-10-04T04:18:16;14.90;98.30
921;DHT22;447;51.332;6.778;2022-10-04T04:20:44;14.90;98.30
921;DHT22;447;51.332;6.778;2022-10-04T04:25:46;14.90;98.30
921;DHT22;447;51.332;6.778;2022-10-04T04:30:47;14.90;98.30
921;DHT22;447;51.332;6.778;2022-10-04T04:33:28;14.90;98.30
921;DHT22;447;51.332;6.778;2022-10-04T04:36:10;14.90;98.30
921;DHT22;447;51.332;6.778;2022-10-04T04:38:39;14.90;98.30
921;DHT22;447;51.332;6.778;2022-10-04T04:41:28;14.90;98.30
921;DHT22;447;51.332;6.778;2022-10-04T04:43:56;14.80;98.20
921;DHT22;447;51.332;6.778;2022-10-04T04:46:23;14.80;98.30
921;DHT22;447;51.332;6.778;2022-10-04T04:49:01;14.80;98.30
921;DHT22;447;51.332;6.778;2022-10-04T04:51:32;14.80;98.30
921;DHT22;447;51.332;6.778;2022-10-04T04:54:02;14.80;98.20
921;DHT22;447;51.332;6.778;2022-10-04T04:56:30;14.80;98.20
921;DHT22;447;51.332;6.778;2022-10-04T04:59:00;14.80;98.20
921;DHT22;447;51.332;6.778;2022-10-04T05:01:45;14.80;98.20
921;DHT22;447;51.332;6.778;2022-10-04T05:11:50;14.80;98.20
921;DHT22;447;51.332;6.778;2022-10-04T05:14:18;14.70;98.20
921;DHT22;447;51.332;6.778;2022-10-04T05:17:31;14.70;98.20
921;DHT22;447;51.332;6.778;2022-10-04T05:20:02;14.70;98.20
921;DHT22;447;51.332;6.778;2022-10-04T05:22:31;14.70;98.20
921;DHT22;447;51.332;6.778;2022-10-04T05:25:03;14.70;98.20
921;DHT22;447;51.332;6.778;2022-10-04T05:28:10;14.70;98.20
921;DHT22;447;51.332;6.778;2022-10-04T05:31:09;14.70;98.20
921;DHT22;447;51.332;6.778;2022-10-04T05:33:51;14.70;98.20
921;DHT22;447;51.332;6.778;2022-10-04T05:42:09;14.70;98.20
921;DHT22;447;51.332;6.778;2022-10-04T05:44:52;14.70;98.20
921;DHT22;447;51.332;6.778;2022-10-04T05:47:28;14.70;98.20
921;DHT22;447;51.332;6.778;2022-10-04T05:50:01;14.70;98.20
921;DHT22;447;51.332;6.778;2022-10-04T05:52:38;14.70;98.20
921;DHT22;447;51.332;6.778;2022-10-04T05:55:26;14.70;98.20
921;DHT22;447;51.332;6.778;2022-10-04T06:11:56;14.60;98.20
921;DHT22;447;51.332;6.778;2022-10-04T06:14:39;14.60;98.20
921;DHT22;447;51.332;6.778;2022-10-04T06:17:29;14.60;98.20
921;DHT22;447;51.332;6.778;2022-10-04T06:22:59;14.60;98.20
921;DHT22;447;51.332;6.778;2022-10-04T06:25:39;14.60;98.20
921;DHT22;447;51.332;6.778;2022-10-04T06:28:16;14.60;98.20
921;DHT22;447;51.332;6.778;2022-10-04T06:30:53;14.60;98.20
921;DHT22;447;51.332;6.778;2022-10-04T06:42:19;14.50;98.10
921;DHT22;447;51.332;6.778;2022-10-04T06:56:15;14.50;98.10
921;DHT22;447;51.332;6.778;2022-10-04T06:59:35;14.50;98.10
921;DHT22;447;51.332;6.778;2022-10-04T07:02:18;14.50;98.10
921;DHT22;447;51.332;6.778;2022-10-04T07:05:22;14.50;98.10
921;DHT22;447;51.332;6.778;2022-10-04T07:08:20;14.50;98.10
921;DHT22;447;51.332;6.778;2022-10-04T07:11:21;14.50;98.10
921;DHT22;447;51.332;6.778;2022-10-04T07:27:53;14.50;98.10
921;DHT22;447;51.332;6.778;2022-10-04T07:31:03;14.50;98.10
921;DHT22;447;51.332;6.778;2022-10-04T07:33:34;14.50;98.10
921;DHT22;447;51.332;6.778;2022-10-04T07:39:20;14.50;98.10
921;DHT22;447;51.332;6.778;2022-10-04T07:41:58;14.50;98.10
921;DHT22;447;51.332;6.778;2022-10-04T07:44:38;14.50;98.10
921;DHT22;447;51.332;6.778;2022-10-04T07:47:22;14.50;98.10
921;DHT22;447;51.332;6.778;2022-10-04T07:49:50;14.50;98.10
921;DHT22;447;51.332;6.778;2022-10-04T07:52:30;14.40;98.10
921;DHT22;447;51.332;6.778;2022-10-04T08:03:39;14.50;98.10
921;DHT22;447;51.332;6.778;2022-10-04T08:20:42;14.40;98.00
921;DHT22;447;51.332;6.778;2022-10-04T08:34:42;14.40;98.10
921;DHT22;447;51.332;6.778;2022-10-04T08:37:16;14.40;98.10
921;DHT22;447;51.332;6.778;2022-10-04T08:45:06;14.50;98.20
921;DHT22;447;51.332;6.778;2022-10-04T08:54:07;14.50;98.10
921;DHT22;447;51.332;6.778;2022-10-04T08:56:56;14.50;98.20
921;DHT22;447;51.332;6.778;2022-10-04T09:16:47;14.60;98.30
921;DHT22;447;51.332;6.778;2022-10-04T09:19:37;14.60;98.20
921;DHT22;447;51.332;6.778;2022-10-04T09:28:28;14.70;98.40
921;DHT22;447;51.332;6.778;2022-10-04T09:31:25;14.70;98.40
921;DHT22;447;51.332;6.778;2022-10-04T09:48:52;14.90;98.40
921;DHT22;447;51.332;6.778;2022-10-04T09:57:28;14.90;98.30
921;DHT22;447;51.332;6.778;2022-10-04T10:00:31;14.90;98.20
921;DHT22;447;51.332;6.778;2022-10-04T10:03:21;14.90;98.10
921;DHT22;447;51.332;6.778;2022-10-04T10:06:11;15.00;98.20
921;DHT22;447;51.332;6.778;2022-10-04T10:46:29;15.40;97.90
921;DHT22;447;51.332;6.778;2022-10-04T11:06:28;15.60;97.70
921;DHT22;447;51.332;6.778;2022-10-04T11:15:36;15.70;97.60
921;DHT22;447;51.332;6.778;2022-10-04T11:27:30;15.80;97.50
921;DHT22;447;51.332;6.778;2022-10-04T11:30:14;15.80;97.50
921;DHT22;447;51.332;6.778;2022-10-04T11:38:50;15.90;97.50
921;DHT22;447;51.332;6.778;2022-10-04T11:41:16;15.90;97.40
921;DHT22;447;51.332;6.778;2022-10-04T12:00:45;16.10;97.20
921;DHT22;447;51.332;6.778;2022-10-04T12:06:27;16.10;97.20
921;DHT22;447;51.332;6.778;2022-10-04T12:09:02;16.20;97.10
921;DHT22;447;51.332;6.778;2022-10-04T12:18:47;16.20;96.90
921;DHT22;447;51.332;6.778;2022-10-04T12:35:46;16.40;96.90
921;DHT22;447;51.332;6.778;2022-10-04T12:47:21;16.40;96.70
921;DHT22;447;51.332;6.778;2022-10-04T12:50:11;16.40;96.70
921;DHT22;447;51.332;6.778;2022-10-04T12:55:59;16.50;96.70
921;DHT22;447;51.332;6.778;2022-10-04T12:58:53;16.50;96.70
921;DHT22;447;51.332;6.778;2022-10-04T13:04:37;16.60;96.70
921;DHT22;447;51.332;6.778;2022-10-04T13:15:03;16.60;96.60
921;DHT22;447;51.332;6.778;2022-10-04T13:29:52;16.70;96.40
921;DHT22;447;51.332;6.778;2022-10-04T13:32:29;16.70;96.30
921;DHT22;447;51.332;6.778;2022-10-04T13:40:41;16.80;96.30
921;DHT22;447;51.332;6.778;2022-10-04T13:52:01;16.80;96.20
921;DHT22;447;51.332;6.778;2022-10-04T14:07:04;16.90;96.00
921;DHT22;447;51.332;6.778;2022-10-04T14:09:17;16.90;96.00
921;DHT22;447;51.332;6.778;2022-10-04T14:34:23;17.00;95.80
921;DHT22;447;51.332;6.778;2022-10-04T14:59:19;17.10;95.80
921;DHT22;447;51.332;6.778;2022-10-04T15:07:16;17.20;95.60
921;DHT22;447;51.332;6.778;2022-10-04T15:12:58;17.20;95.60
921;DHT22;447;51.332;6.778;2022-10-04T15:15:39;17.20;95.50
921;DHT22;447;51.332;6.778;2022-10-04T15:21:08;17.20;95.50
921;DHT22;447;51.332;6.778;2022-10-04T15:23:42;17.20;95.50
921;DHT22;447;51.332;6.778;2022-10-04T15:35:29;17.20;95.40
921;DHT22;447;51.332;6.778;2022-10-04T15:38:20;17.20;95.40
921;DHT22;447;51.332;6.778;2022-10-04T15:41:00;17.30;95.40
921;DHT22;447;51.332;6.778;2022-10-04T15:46:31;17.20;95.40
921;DHT22;447;51.332;6.778;2022-10-04T15:49:18;17.20;95.50
921;DHT22;447;51.332;6.778;2022-10-04T15:52:52;17.20;95.50
921;DHT22;447;51.332;6.778;2022-10-04T16:06:52;17.20;95.60
921;DHT22;447;51.332;6.778;2022-10-04T16:12:06;17.20;95.70
921;DHT22;447;51.332;6.778;2022-10-04T16:15:10;17.20;95.80
921;DHT22;447;51.332;6.778;2022-10-04T16:17:42;17.20;95.80
921;DHT22;447;51.332;6.778;2022-10-04T16:23:34;17.20;95.90
921;DHT22;447;51.332;6.778;2022-10-04T16:28:31;17.20;96.00
921;DHT22;447;51.332;6.778;2022-10-04T16:34:02;17.20;96.10
921;DHT22;447;51.332;6.778;2022-10-04T16:42:56;17.20;96.10
921;DHT22;447;51.332;6.778;2022-10-04T16:48:29;17.10;96.20
921;DHT22;447;51.332;6.778;2022-10-04T16:54:01;17.10;96.30
921;DHT22;447;51.332;6.778;2022-10-04T17:04:51;17.10;96.50
921;DHT22;447;51.332;6.778;2022-10-04T17:07:31;17.10;96.50
921;DHT22;447;51.332;6.778;2022-10-04T17:10:18;17.10;96.60
921;DHT22;447;51.332;6.778;2022-10-04T17:22:03;17.00;96.40
921;DHT22;447;51.332;6.778;2022-10-04T17:30:24;17.00;96.70
921;DHT22;447;51.332;6.778;2022-10-04T17:47:00;17.00;97.00
921;DHT22;447;51.332;6.778;2022-10-04T17:52:24;16.90;97.20
921;DHT22;447;51.332;6.778;2022-10-04T17:55:21;16.90;97.40
921;DHT22;447;51.332;6.778;2022-10-04T18:00:26;16.90;97.60
921;DHT22;447;51.332;6.778;2022-10-04T18:03:36;16.90;97.60
921;DHT22;447;51.332;6.778;2022-10-04T18:06:18;16.90;97.60
921;DHT22;447;51.332;6.778;2022-10-04T18:09:04;16.80;97.50
921;DHT22;447;51.332;6.778;2022-10-04T18:11:55;16.80;97.60
921;DHT22;447;51.332;6.778;2022-10-04T18:22:16;16.80;97.80
921;DHT22;447;51.332;6.778;2022-10-04T18:24:59;16.80;97.80
921;DHT22;447;51.332;6.778;2022-10-04T18:27:31;16.80;97.80
921;DHT22;447;51.332;6.778;2022-10-04T18:34:58;16.80;97.90
921;DHT22;447;51.332;6.778;2022-10-04T18:40:25;16.80;97.90
921;DHT22;447;51.332;6.778;2022-10-04T18:42:58;16.80;97.90
921;DHT22;447;51.332;6.778;2022-10-04T18:45:27;16.70;97.80
921;DHT22;447;51.332;6.778;2022-10-04T18:47:58;16.70;97.80
921;DHT22;447;51.332;6.778;2022-10-04T18:50:41;16.70;97.80
921;DHT22;447;51.332;6.778;2022-10-04T18:53:41;16.70;97.90
921;DHT22;447;51.332;6.778;2022-10-04T18:56:10;16.70;97.90
921;DHT22;447;51.332;6.778;2022-10-04T19:30:20;16.60;98.30
921;DHT22;447;51.332;6.778;2022-10-04T19:38:58;16.50;98.30
921;DHT22;447;51.332;6.778;2022-10-04T19:45:05;16.60;98.40
921;DHT22;447;51.332;6.778;2022-10-04T19:47:48;16.50;98.40
921;DHT22;447;51.332;6.778;2022-10-04T19:50:19;16.50;98.40
921;DHT22;447;51.332;6.778;2022-10-04T19:52:51;16.50;98.40
921;DHT22;447;51.332;6.778;2022-10-04T20:01:07;16.50;98.40
921;DHT22;447;51.332;6.778;2022-10-04T20:03:34;16.50;98.40
921;DHT22;447;51.332;6.778;2022-10-04T20:06:02;16.50;98.40
921;DHT22;447;51.332;6.778;2022-10-04T20:08:47;16.40;98.30
921;DHT22;447;51.332;6.778;2022-10-04T20:19:37;16.50;98.30
921;DHT22;447;51.332;6.778;2022-10-04T20:35:02;16.40;98.10
921;DHT22;447;51.332;6.778;2022-10-04T20:45:53;16.40;98.00
921;DHT22;447;51.332;6.778;2022-10-04T20:48:20;16.40;98.00
921;DHT22;447;51.332;6.778;2022-10-04T20:50:52;16.30;97.90
921;DHT22;447;51.332;6.778;2022-10-04T20:53:25;16.40;98.00
921;DHT22;447;51.332;6.778;2022-10-04T20:58:50;16.30;97.90
921;DHT22;447;51.332;6.778;2022-10-04T21:01:33;16.30;97.90
921;DHT22;447;51.332;6.778;2022-10-04T21:06:57;16.30;97.80
921;DHT22;447;51.332;6.778;2022-10-04T21:09:26;16.30;97.80
921;DHT22;447;51.332;6.778;2022-10-04T21:11:56;16.30;97.80
921;DHT22;447;51.332;6.778;2022-10-04T21:14:28;16.20;97.80
921;DHT22;447;51.332;6.778;2022-10-04T21:17:03;16.20;97.80
921;DHT22;447;51.332;6.778;2022-10-04T21:21:59;16.20;97.80
921;DHT22;447;51.332;6.778;2022-10-04T21:27:35;16.20;97.80
921;DHT22;447;51.332;6.778;2022-10-04T21:30:15;16.20;97.80
921;DHT22;447;51.332;6.778;2022-10-04T21:32:42;16.20;97.80
921;DHT22;447;51.332;6.778;2022-10-04T21:35:11;16.20;97.80
921;DHT22;447;51.332;6.778;2022-10-04T21:37:42;16.20;97.80
921;DHT22;447;51.332;6.778;2022-10-04T21:40:08;16.20;97.80
921;DHT22;447;51.332;6.778;2022-10-04T21:42:34;16.20;97.80
921;DHT22;447;51.332;6.778;2022-10-04T21:45:03;16.20;97.90
921;DHT22;447;51.332;6.778;2022-10-04T21:47:31;16.20;97.90
921;DHT22;447;51.332;6.778;2022-10-04T21:50:04;16.20;97.90
921;DHT22;447;51.332;6.778;2022-10-04T21:52:30;16.20;97.90
921;DHT22;447;51.332;6.778;2022-10-04T21:54:58;16.20;97.90
921;DHT22;447;51.332;6.778;2022-10-04T21:57:26;16.20;97.90
921;DHT22;447;51.332;6.778;2022-10-04T21:59:57;16.20;97.90
921;DHT22;447;51.332;6.778;2022-10-04T22:02:27;16.10;97.90
921;DHT22;447;51.332;6.778;2022-10-04T22:04:53;16.10;97.90
921;DHT22;447;51.332;6.778;2022-10-04T22:07:21;16.10;97.90
921;DHT22;447;51.332;6.778;2022-10-04T22:09:51;16.10;98.00
921;DHT22;447;51.332;6.778;2022-10-04T22:12:24;16.10;98.00
921;DHT22;447;51.332;6.778;2022-10-04T22:14:51;16.10;98.00
921;DHT22;447;51.332;6.778;2022-10-04T22:17:24;16.10;98.10
921;DHT22;447;51.332;6.778;2022-10-04T22:19:50;16.10;98.10
921;DHT22;447;51.332;6.778;2022-10-04T22:22:28;16.10;98.10
921;DHT22;447;51.332;6.778;2022-10-04T22:25:00;16.10;98.10
921;DHT22;447;51.332;6.778;2022-10-04T22:27:29;16.10;98.20
921;DHT22;447;51.332;6.778;2022-10-04T22:30:00;16.10;98.20
921;DHT22;447;51.332;6.778;2022-10-04T22:32:27;16.10;98.20
921;DHT22;447;51.332;6.778;2022-10-04T22:35:09;16.00;98.10
921;DHT22;447;51.332;6.778;2022-10-04T22:37:40;16.10;98.20
921;DHT22;447;51.332;6.778;2022-10-04T22:40:16;16.00;98.10
921;DHT22;447;51.332;6.778;2022-10-04T22:42:47;16.00;98.10
921;DHT22;447;51.332;6.778;2022-10-04T22:45:23;16.00;98.10
921;DHT22;447;51.332;6.778;2022-10-04T22:47:50;16.00;98.20
921;DHT22;447;51.332;6.778;2022-10-04T22:50:37;16.00;98.20
921;DHT22;447;51.332;6.778;2022-10-04T22:53:13;16.00;98.20
921;DHT22;447;51.332;6.778;2022-10-04T22:55:43;16.00;98.20
921;DHT22;447;51.332;6.778;2022-10-04T22:58:17;16.00;98.20
921;DHT22;447;51.332;6.778;2022-10-04T23:00:48;16.00;98.20
921;DHT22;447;51.332;6.778;2022-10-04T23:03:24;16.00;98.20
921;DHT22;447;51.332;6.778;2022-10-04T23:05:51;16.00;98.20
921;DHT22;447;51.332;6.778;2022-10-04T23:08:22;16.00;98.20
921;DHT22;447;51.332;6.778;2022-10-04T23:10:55;16.00;98.20
921;DHT22;447;51.332;6.778;2022-10-04T23:13:26;16.00;98.20
921;DHT22;447;51.332;6.778;2022-10-04T23:15:58;15.90;98.10
921;DHT22;447;51.332;6.778;2022-10-04T23:18:32;15.90;98.10
921;DHT22;447;51.332;6.778;2022-10-04T23:21:01;15.90;98.10
921;DHT22;447;51.332;6.778;2022-10-04T23:23:27;15.90;98.10
921;DHT22;447;51.332;6.778;2022-10-04T23:25:57;15.90;98.10
921;DHT22;447;51.332;6.778;2022-10-04T23:28:28;15.90;98.10
921;DHT22;447;51.332;6.778;2022-10-04T23:31:10;15.90;98.20
921;DHT22;447;51.332;6.778;2022-10-04T23:33:39;15.90;98.20
921;DHT22;447;51.332;6.778;2022-10-04T23:36:13;15.90;98.20
921;DHT22;447;51.332;6.778;2022-10-04T23:38:49;15.90;98.20
921;DHT22;447;51.332;6.778;2022-10-04T23:41:17;15.80;98.10
921;DHT22;447;51.332;6.778;2022-10-04T23:43:47;15.80;98.20
921;DHT22;447;51.332;6.778;2022-10-04T23:46:19;15.80;98.20
921;DHT22;447;51.332;6.778;2022-10-04T23:48:50;15.80;98.20
921;DHT22;447;51.332;6.778;2022-10-04T23:51:18;15.80;98.20
921;DHT22;447;51.332;6.778;2022-10-04T23:53:50;15.80;98.20
921;DHT22;447;51.332;6.778;2022-10-04T23:56:27;15.80;98.20
921;DHT22;447;51.332;6.778;2022-10-04T23:58:58;15.80;98.20
